createdAt,value
2019-06-26T00:04:59.276Z,983.69
2019-06-26T00:10:37.403Z,983.71
2019-06-26T00:16:16.535Z,983.75
2019-06-26T00:21:55.984Z,983.77
2019-06-26T00:27:38.317Z,983.81
2019-06-26T00:33:24.164Z,983.86
2019-06-26T01:42:54.402Z,983.99
2019-06-26T01:48:42.913Z,984.0
2019-06-26T01:54:24.287Z,984.04
2019-06-26T01:59:56.217Z,984.11
2019-06-26T02:05:29.017Z,984.08
2019-06-26T02:11:09.544Z,984.06
2019-06-26T02:16:43.081Z,984.13
2019-06-26T02:23:42.246Z,984.11
2019-06-26T02:29:30.963Z,984.07
2019-06-26T02:35:11.161Z,984.12
2019-06-26T02:40:43.761Z,984.04
2019-06-26T02:46:25.633Z,984.04
2019-06-26T02:51:59.981Z,984.11
2019-06-26T02:57:32.252Z,984.09
2019-06-26T03:03:03.927Z,984.09
2019-06-26T03:08:35.632Z,984.09
2019-06-26T03:14:07.344Z,984.07
2019-06-26T03:19:39.051Z,984.08
2019-06-26T03:25:29.568Z,984.09
2019-06-26T03:31:04.220Z,984.19
2019-06-26T03:36:37.925Z,984.26
2019-06-26T03:42:12.004Z,984.25
2019-06-26T03:47:47.340Z,984.29
2019-06-26T03:53:29.476Z,984.25
2019-06-26T03:59:02.600Z,984.39
2019-06-26T04:04:52.225Z,984.37
2019-06-26T04:10:30.474Z,984.43
2019-06-26T04:16:04.247Z,984.51
2019-06-26T04:21:35.937Z,984.53
2019-06-26T04:27:27.437Z,984.58
2019-06-26T04:33:01.285Z,984.6
2019-06-26T04:58:28.733Z,984.73
2019-06-26T05:16:20.348Z,984.83
2019-06-26T05:21:43.754Z,984.91
2019-06-26T05:27:47.948Z,984.93
2019-06-26T05:36:05.154Z,985.0
2019-06-26T05:42:27.774Z,985.02
2019-06-26T05:48:15.554Z,985.06
2019-06-26T05:54:11.723Z,985.03
2019-06-26T06:06:55.695Z,985.09
2019-06-26T06:12:34.896Z,985.15
2019-06-26T06:31:15.969Z,985.18
2019-06-26T06:57:36.788Z,985.32
2019-06-26T07:15:20.700Z,985.48
2019-06-26T07:21:23.646Z,985.51
2019-06-26T07:40:10.589Z,985.62
2019-06-26T07:46:24.619Z,985.71
2019-06-26T08:02:23.118Z,985.83
2019-06-26T08:22:26.038Z,985.92
2019-06-26T08:37:42.368Z,985.97
2019-06-26T08:44:35.760Z,985.98
2019-06-26T08:50:16.461Z,986.0
2019-06-26T09:01:39.487Z,985.97
2019-06-26T09:07:11.485Z,985.96
2019-06-26T09:13:21.181Z,985.9
2019-06-26T09:18:52.517Z,985.93
2019-06-26T09:24:24.489Z,985.96
2019-06-26T09:30:20.435Z,985.97
2019-06-26T09:42:39.000Z,986.04
2019-06-26T09:55:02.461Z,986.01
2019-06-26T10:00:46.573Z,985.96
2019-06-26T10:19:11.294Z,985.86
2019-06-26T10:24:28.890Z,985.85
2019-06-26T10:36:25.266Z,985.9
2019-06-26T10:48:59.260Z,985.87
2019-06-26T10:54:31.970Z,985.79
2019-06-26T11:00:06.043Z,985.77
2019-06-26T11:05:38.247Z,985.77
2019-06-26T11:11:09.767Z,985.73
2019-06-26T11:16:49.774Z,985.68
2019-06-26T11:29:09.888Z,985.68
2019-06-26T11:34:53.746Z,985.72
2019-06-26T11:40:47.995Z,985.72
2019-06-26T11:46:21.676Z,985.75
2019-06-26T11:51:53.361Z,985.76
2019-06-26T11:57:25.214Z,985.73
2019-06-26T12:02:57.773Z,985.64
2019-06-26T12:08:28.768Z,986.57
2019-06-26T12:14:00.456Z,985.51
2019-06-26T12:19:32.268Z,985.99
2019-06-26T12:25:10.304Z,985.54
2019-06-26T12:30:42.084Z,985.45
2019-06-26T12:36:14.082Z,985.42
2019-06-26T12:41:45.431Z,985.37
2019-06-26T12:47:17.178Z,985.27
2019-06-26T12:52:48.940Z,985.25
2019-06-26T12:58:20.879Z,985.12
2019-06-26T13:03:52.489Z,985.13
2019-06-26T13:09:24.169Z,985.11
2019-06-26T13:14:55.882Z,985.09
2019-06-26T13:20:27.642Z,985.04
2019-06-26T13:26:13.679Z,985.09
2019-06-26T13:31:47.618Z,985.08
2019-06-26T13:37:23.091Z,985.06
2019-06-26T13:42:53.903Z,985.03
2019-06-26T13:48:25.748Z,985.04
2019-06-26T13:59:56.984Z,984.94
2019-06-26T14:05:48.119Z,984.91
2019-06-26T14:11:21.761Z,984.86
2019-06-26T14:16:57.228Z,984.8
2019-06-26T14:22:52.543Z,984.74
2019-06-26T14:28:53.704Z,984.79
2019-06-26T14:37:04.992Z,984.75
2019-06-26T14:51:16.489Z,984.66
2019-06-26T15:19:18.895Z,984.41
2019-06-26T15:32:12.905Z,984.29
2019-06-26T15:38:11.334Z,984.2
2019-06-26T15:44:06.821Z,984.15
2019-06-26T15:58:34.733Z,984.12
2019-06-26T16:14:15.852Z,983.99
2019-06-26T16:54:26.010Z,983.96
2019-06-26T17:58:41.148Z,984.0
2019-06-26T18:05:40.160Z,983.96
2019-06-26T18:19:48.508Z,983.91
2019-06-26T19:36:29.164Z,983.94
2019-06-26T19:41:57.292Z,983.97
2019-06-26T19:47:28.969Z,984.01
2019-06-26T19:53:00.694Z,984.13
2019-06-26T19:58:32.506Z,984.17
2019-06-26T20:04:04.258Z,984.23
2019-06-26T20:09:36.892Z,984.23
2019-06-26T20:15:08.711Z,984.24
2019-06-26T20:20:46.642Z,984.25
2019-06-26T20:26:18.403Z,984.27
2019-06-26T20:31:50.146Z,984.28
2019-06-26T20:37:21.934Z,984.24
2019-06-26T20:42:53.844Z,984.28
2019-06-26T20:48:25.430Z,984.26
2019-06-26T20:53:57.257Z,984.31
2019-06-26T20:59:28.984Z,984.31
2019-06-26T21:05:00.785Z,984.33
2019-06-26T21:10:32.694Z,984.42
2019-06-26T21:16:04.545Z,984.43
2019-06-26T21:21:42.612Z,984.42
2019-06-26T21:27:14.560Z,984.44
2019-06-26T21:32:46.368Z,984.44
2019-06-26T21:38:18.114Z,984.39
2019-06-26T21:43:49.829Z,984.4
2019-06-26T21:49:21.597Z,984.35
2019-06-26T21:54:53.270Z,984.4
2019-06-26T22:00:25.157Z,984.35
2019-06-26T22:05:56.814Z,984.38
2019-06-26T22:11:28.545Z,984.46
2019-06-26T22:17:00.297Z,984.49
2019-06-26T22:22:36.312Z,984.45
2019-06-26T22:28:08.056Z,984.47
2019-06-26T22:33:39.810Z,984.43
2019-06-26T22:39:11.470Z,984.4
2019-06-26T22:44:43.272Z,984.32
2019-06-26T22:50:14.912Z,984.34
2019-06-26T22:55:46.675Z,984.34
2019-06-26T23:01:18.364Z,984.4
2019-06-26T23:06:50.259Z,984.42
2019-06-26T23:12:21.884Z,984.47
2019-06-26T23:17:53.542Z,984.4
2019-06-26T23:23:31.576Z,984.44
2019-06-26T23:29:03.255Z,984.36
2019-06-26T23:34:35.163Z,984.39
2019-06-26T23:40:06.747Z,984.34
2019-06-26T23:45:38.444Z,984.3
2019-06-26T23:51:10.212Z,984.33
2019-06-26T23:56:41.931Z,984.4
